Time;durP1;ratioP1;P1;durP2;ratioP2;P2;SDS_P1;SDS_P2;PMS_P1;PMS_P2;Temp;Humidity;BMP_temperature;BMP_pressure;BME280_temperature;BME280_humidity;BME280_pressure;Samples;Min_cycle;Max_cycle;Signal;HPM_P1;HPM_P2
2023/03/12 00:02:12;;;;;;;8.17;4.40;;;0.60;99.90;;;;;;9916147;30;20232;-79
2023/03/12 00:07:35;;;;;;;6.83;4.43;;;0.50;99.90;;;;;;9931293;30;20309;-79
2023/03/12 00:12:57;;;;;;;6.13;4.70;;;0.40;99.90;;;;;;9922871;30;20209;-78
2023/03/12 00:18:18;;;;;;;11.13;5.60;;;0.50;99.90;;;;;;9904671;29;20249;-79
2023/03/12 00:23:39;;;;;;;8.20;4.10;;;0.60;99.90;;;;;;9893468;30;20586;-79
2023/03/12 00:29:00;;;;;;;4.57;3.70;;;0.50;99.90;;;;;;9917200;30;20232;-79
2023/03/12 00:34:21;;;;;;;5.10;2.70;;;0.60;99.90;;;;;;9929359;30;20455;-79
2023/03/12 00:39:42;;;;;;;4.53;2.57;;;0.60;99.90;;;;;;9923138;30;20455;-78
2023/03/12 00:45:04;;;;;;;2.80;2.40;;;0.60;99.90;;;;;;9916094;30;20219;-78
2023/03/12 00:50:25;;;;;;;4.77;2.60;;;0.60;99.90;;;;;;9926830;30;20235;-79
2023/03/12 00:55:46;;;;;;;4.47;2.77;;;0.70;99.90;;;;;;9885971;29;20264;-79
2023/03/12 01:01:08;;;;;;;2.77;2.40;;;0.70;99.90;;;;;;9855684;30;20234;-80
2023/03/12 01:06:29;;;;;;;2.40;1.70;;;0.70;99.90;;;;;;9881634;30;20216;-79
2023/03/12 01:11:50;;;;;;;2.63;1.80;;;0.70;99.90;;;;;;9928289;30;20553;-79
2023/03/12 01:17:11;;;;;;;3.23;1.80;;;0.70;99.90;;;;;;9899672;30;20516;-80
2023/03/12 01:22:34;;;;;;;2.17;1.80;;;0.70;99.90;;;;;;9915022;30;20244;-79
2023/03/12 01:27:55;;;;;;;1.43;1.30;;;0.80;99.90;;;;;;9868265;30;20241;-79
2023/03/12 01:33:17;;;;;;;4.10;1.63;;;0.70;99.90;;;;;;9878318;30;20396;-77
2023/03/12 01:38:38;;;;;;;2.23;1.10;;;0.70;99.90;;;;;;9899801;29;20504;-79
2023/03/12 01:44:02;;;;;;;5.70;1.17;;;0.60;99.90;;;;;;9891180;30;20232;-79
2023/03/12 01:49:32;;;;;;;3.40;1.27;;;0.60;99.90;;;;;;9890723;30;20549;-79
2023/03/12 01:55:11;;;;;;;2.77;1.20;;;0.50;99.90;;;;;;9871051;30;20307;-79
2023/03/12 02:00:34;;;;;;;1.40;0.70;;;0.40;99.90;;;;;;9851761;30;20240;-79
2023/03/12 02:06:07;;;;;;;3.13;1.00;;;0.30;99.90;;;;;;9881865;30;20217;-79
2023/03/12 02:11:28;;;;;;;2.70;1.03;;;0.20;99.90;;;;;;9879067;30;20502;-78
2023/03/12 02:16:50;;;;;;;2.77;1.03;;;0.20;99.90;;;;;;9908102;30;20213;-79
2023/03/12 02:22:13;;;;;;;6.00;1.63;;;0.10;99.90;;;;;;9914035;30;20341;-79
2023/03/12 02:27:36;;;;;;;4.87;1.00;;;0.10;99.90;;;;;;9910018;30;20539;-79
2023/03/12 02:33:04;;;;;;;4.10;1.70;;;0.00;99.90;;;;;;9922247;30;20445;-79
2023/03/12 02:38:47;;;;;;;3.10;0.80;;;0.00;99.90;;;;;;9852761;30;20201;-78
2023/03/12 02:44:24;;;;;;;4.93;1.00;;;0.00;99.90;;;;;;9910030;30;20219;-78
2023/03/12 02:49:45;;;;;;;3.90;1.30;;;-0.10;99.90;;;;;;9933903;30;20253;-79
2023/03/12 02:55:07;;;;;;;3.77;0.90;;;-0.10;99.90;;;;;;9873892;30;20252;-79
2023/03/12 03:00:31;;;;;;;3.63;1.30;;;-0.20;99.90;;;;;;9870310;30;20432;-78
2023/03/12 03:05:52;;;;;;;3.23;1.30;;;-0.30;99.90;;;;;;9919277;30;20216;-78
2023/03/12 03:11:14;;;;;;;2.43;1.03;;;-0.30;99.90;;;;;;9932649;30;20250;-78
2023/03/12 03:16:35;;;;;;;4.17;1.00;;;-0.20;99.90;;;;;;9878254;30;20369;-79
2023/03/12 03:21:56;;;;;;;5.47;0.90;;;-0.20;99.90;;;;;;9894750;30;20297;-79
2023/03/12 03:27:18;;;;;;;4.80;1.03;;;-0.30;99.90;;;;;;9885243;30;20215;-79
2023/03/12 03:32:39;;;;;;;5.27;1.30;;;-0.40;99.90;;;;;;9911693;30;20573;-79
2023/03/12 03:38:03;;;;;;;7.50;1.10;;;-0.50;99.90;;;;;;9882098;30;20215;-79
2023/03/12 03:43:24;;;;;;;3.67;1.20;;;-0.60;99.90;;;;;;9891472;30;20587;-79
2023/03/12 03:48:45;;;;;;;5.27;1.00;;;-0.70;99.90;;;;;;9881112;30;20212;-79
2023/03/12 03:54:11;;;;;;;3.67;0.90;;;-0.70;99.90;;;;;;9893477;30;20229;-79
2023/03/12 03:59:33;;;;;;;4.97;0.83;;;-0.70;99.90;;;;;;9864276;30;20241;-79
2023/03/12 04:04:58;;;;;;;2.10;0.83;;;-0.80;99.90;;;;;;9856451;30;20197;-79
2023/03/12 04:10:22;;;;;;;2.93;1.20;;;-0.90;99.90;;;;;;9883834;30;20215;-79
2023/03/12 04:15:52;;;;;;;2.27;0.77;;;-0.80;99.90;;;;;;9917969;30;20251;-79
2023/03/12 04:21:14;;;;;;;3.27;0.90;;;-0.80;99.90;;;;;;9928816;30;20296;-79
2023/03/12 04:26:36;;;;;;;8.07;1.27;;;-0.80;99.90;;;;;;9896047;30;20265;-79
2023/03/12 04:31:59;;;;;;;3.70;1.23;;;-0.80;99.90;;;;;;9916646;30;20210;-79
2023/03/12 04:37:20;;;;;;;4.20;1.03;;;-1.00;99.90;;;;;;9916553;30;20226;-79
2023/03/12 04:42:42;;;;;;;7.33;1.23;;;-1.00;99.90;;;;;;9923685;30;20235;-79
2023/03/12 04:48:04;;;;;;;3.90;0.90;;;-1.00;99.90;;;;;;9915791;30;20214;-79
2023/03/12 04:53:25;;;;;;;4.80;0.97;;;-1.00;99.90;;;;;;9923218;30;20437;-79
2023/03/12 04:58:46;;;;;;;8.13;1.10;;;-1.10;99.90;;;;;;9886443;30;20218;-78
2023/03/12 05:04:08;;;;;;;4.00;0.90;;;-1.10;99.90;;;;;;9890964;30;20210;-79
2023/03/12 05:09:29;;;;;;;5.90;1.30;;;-1.20;99.90;;;;;;9901487;30;20207;-79
2023/03/12 05:14:51;;;;;;;1.00;0.73;;;-1.10;99.90;;;;;;9878552;30;20214;-79
2023/03/12 05:20:12;;;;;;;3.27;0.80;;;-1.20;99.90;;;;;;9891016;30;20230;-79
2023/03/12 05:25:39;;;;;;;4.83;1.83;;;-1.10;99.90;;;;;;9906161;30;20215;-79
2023/03/12 05:31:08;;;;;;;6.93;1.20;;;-1.00;99.90;;;;;;9902541;30;20455;-79
2023/03/12 05:36:29;;;;;;;5.60;1.23;;;-1.00;99.90;;;;;;9909295;30;20291;-79
2023/03/12 05:41:52;;;;;;;4.27;1.40;;;-1.00;99.90;;;;;;9915389;30;20226;-79
2023/03/12 05:47:15;;;;;;;2.60;0.80;;;-0.70;99.90;;;;;;9914479;30;20275;-79
2023/03/12 05:52:36;;;;;;;4.80;1.23;;;-0.80;99.90;;;;;;9909571;30;20520;-79
2023/03/12 05:57:57;;;;;;;1.60;1.10;;;-0.80;99.90;;;;;;9867991;30;20247;-79
2023/03/12 06:03:19;;;;;;;3.63;0.90;;;-0.80;99.90;;;;;;9890246;30;20477;-79
2023/03/12 06:08:41;;;;;;;9.60;1.80;;;-0.70;99.90;;;;;;9921026;30;20207;-79
2023/03/12 06:14:03;;;;;;;3.07;0.90;;;-0.70;99.90;;;;;;9928773;29;20203;-79
2023/03/12 06:19:27;;;;;;;6.30;1.00;;;-0.60;99.90;;;;;;9915243;30;20251;-79
2023/03/12 06:24:49;;;;;;;7.33;1.13;;;-0.50;99.90;;;;;;9912659;30;20586;-78
2023/03/12 06:30:12;;;;;;;7.40;1.30;;;-0.50;99.90;;;;;;9921002;30;20215;-78
2023/03/12 06:35:33;;;;;;;3.47;1.30;;;-0.40;99.90;;;;;;9929529;30;20621;-78
2023/03/12 06:41:00;;;;;;;4.60;1.30;;;-0.20;99.90;;;;;;9933490;30;20273;-79
2023/03/12 06:46:23;;;;;;;4.80;1.43;;;0.00;99.90;;;;;;9934479;30;20386;-78
2023/03/12 06:51:45;;;;;;;5.57;1.50;;;0.30;99.90;;;;;;9928275;30;20219;-79
2023/03/12 06:57:06;;;;;;;5.83;1.70;;;0.90;99.90;;;;;;9903152;30;20237;-79
2023/03/12 07:02:27;;;;;;;5.67;1.80;;;1.90;98.30;;;;;;9902694;30;20291;-79
2023/03/12 07:07:49;;;;;;;7.27;1.57;;;3.80;69.10;;;;;;9932515;30;20479;-77
2023/03/12 07:13:11;;;;;;;5.87;1.10;;;5.30;38.20;;;;;;9927070;30;20216;-77
2023/03/12 07:18:32;;;;;;;4.97;1.47;;;6.40;27.40;;;;;;9927473;30;20213;-79
2023/03/12 07:23:53;;;;;;;5.60;1.30;;;6.90;25.10;;;;;;9911185;30;20526;-79
2023/03/12 07:29:14;;;;;;;4.17;1.00;;;7.90;22.20;;;;;;9908937;29;20220;-79
2023/03/12 07:34:35;;;;;;;4.10;1.10;;;8.30;18.20;;;;;;9911552;30;20216;-78
2023/03/12 07:39:57;;;;;;;8.63;1.37;;;8.30;17.90;;;;;;9932058;30;20232;-80
2023/03/12 07:45:18;;;;;;;7.70;1.33;;;8.40;16.80;;;;;;9905966;30;20473;-79
2023/03/12 07:50:41;;;;;;;4.17;1.20;;;8.80;15.40;;;;;;9920840;30;20533;-80
2023/03/12 07:56:02;;;;;;;10.20;2.33;;;8.20;15.40;;;;;;9908910;29;20581;-79
2023/03/12 08:01:30;;;;;;;3.73;1.20;;;9.00;14.70;;;;;;9893073;30;20325;-80
2023/03/12 08:06:51;;;;;;;4.37;1.50;;;8.60;13.40;;;;;;9907965;30;20496;-77
2023/03/12 08:12:12;;;;;;;5.10;1.40;;;6.00;16.10;;;;;;9931131;30;20283;-77
2023/03/12 08:17:34;;;;;;;4.47;1.67;;;4.90;18.80;;;;;;9924360;30;20454;-77
2023/03/12 08:22:55;;;;;;;4.90;1.50;;;5.80;19.50;;;;;;9903149;30;20457;-79
2023/03/12 08:28:17;;;;;;;8.20;2.43;;;6.50;17.20;;;;;;9907389;30;20229;-79
2023/03/12 08:33:42;;;;;;;2.93;1.17;;;7.20;17.50;;;;;;9902573;30;20284;-79
2023/03/12 08:39:03;;;;;;;3.80;1.10;;;7.50;14.70;;;;;;9928448;29;20213;-79
2023/03/12 08:44:25;;;;;;;5.13;1.23;;;7.70;13.20;;;;;;9930365;30;20204;-79
2023/03/12 08:49:46;;;;;;;5.80;2.27;;;8.00;12.40;;;;;;9923503;30;20218;-79
2023/03/12 08:55:09;;;;;;;6.43;2.13;;;7.10;13.40;;;;;;9905985;30;20296;-79
2023/03/12 09:00:30;;;;;;;14.27;4.13;;;7.40;13.50;;;;;;9854597;30;20537;-79
2023/03/12 09:06:02;;;;;;;9.23;3.13;;;8.30;11.70;;;;;;9856051;30;20213;-79
2023/03/12 09:11:23;;;;;;;6.90;2.17;;;7.80;12.80;;;;;;9888044;30;20214;-79
2023/03/12 09:16:45;;;;;;;5.07;1.90;;;7.70;11.90;;;;;;9855370;30;20278;-80
2023/03/12 09:22:06;;;;;;;11.33;3.17;;;6.90;11.90;;;;;;9859273;30;20234;-79
2023/03/12 09:27:27;;;;;;;5.83;2.53;;;6.60;12.30;;;;;;9854078;30;20504;-79
2023/03/12 09:32:49;;;;;;;5.77;2.27;;;7.80;10.80;;;;;;9885054;30;20207;-80
2023/03/12 09:38:13;;;;;;;5.70;1.50;;;7.10;10.80;;;;;;9901132;30;20205;-78
2023/03/12 09:43:41;;;;;;;7.13;1.20;;;7.30;11.70;;;;;;9928578;30;20230;-79
2023/03/12 09:49:10;;;;;;;4.87;2.17;;;8.70;9.80;;;;;;9928510;29;20306;-78
2023/03/12 09:54:43;;;;;;;2.73;0.87;;;8.30;9.40;;;;;;9868026;30;20239;-79
2023/03/12 10:00:12;;;;;;;6.60;2.13;;;7.00;11.10;;;;;;9904116;30;20278;-80
2023/03/12 10:05:57;;;;;;;7.20;1.70;;;6.10;12.80;;;;;;9935555;29;20552;-79
2023/03/12 10:11:31;;;;;;;3.67;1.37;;;7.50;11.40;;;;;;9934291;30;20268;-79
2023/03/12 10:17:05;;;;;;;5.67;1.30;;;8.60;9.10;;;;;;9904995;30;20216;-79
2023/03/12 10:22:49;;;;;;;5.40;1.63;;;9.10;8.80;;;;;;9896732;30;20234;-78
2023/03/12 10:28:43;;;;;;;3.73;1.63;;;8.80;8.20;;;;;;9778934;30;20229;-78
2023/03/12 10:34:22;;;;;;;7.80;1.77;;;8.60;8.90;;;;;;9752861;30;20206;-79
2023/03/12 10:39:44;;;;;;;5.17;1.63;;;9.40;7.90;;;;;;9755576;30;20626;-79
2023/03/12 10:45:05;;;;;;;6.57;2.20;;;10.40;6.60;;;;;;9772151;30;20312;-79
2023/03/12 10:50:31;;;;;;;10.40;4.40;;;11.30;5.50;;;;;;9783839;30;20259;-79
2023/03/12 10:56:24;;;;;;;9.10;3.93;;;11.30;2.60;;;;;;9769502;30;20260;-79
2023/03/12 11:01:49;;;;;;;5.20;1.40;;;10.90;2.80;;;;;;9761576;30;20581;-78
2023/03/12 11:07:34;;;;;;;5.43;2.10;;;12.20;2.00;;;;;;9859718;30;20280;-79
2023/03/12 11:13:04;;;;;;;3.33;1.60;;;12.40;1.60;;;;;;9917843;30;20267;-78
2023/03/12 11:18:50;;;;;;;8.63;3.03;;;12.20;1.00;;;;;;9932917;30;20436;-78
2023/03/12 11:24:13;;;;;;;4.87;1.60;;;12.10;2.10;;;;;;9910130;30;20547;-78
2023/03/12 11:29:42;;;;;;;1.43;0.83;;;13.00;1.00;;;;;;9932115;30;20207;-80
2023/03/12 11:35:08;;;;;;;3.73;1.03;;;12.70;1.00;;;;;;9932527;30;20218;-78
2023/03/12 11:40:57;;;;;;;3.60;1.00;;;12.60;1.00;;;;;;9926909;30;20424;-79
2023/03/12 11:46:42;;;;;;;2.83;1.10;;;13.00;1.00;;;;;;9931044;30;20202;-79
2023/03/12 11:52:31;;;;;;;3.87;1.40;;;12.90;1.00;;;;;;9930956;30;20516;-79
2023/03/12 11:58:00;;;;;;;3.10;1.43;;;13.20;1.00;;;;;;9892741;30;20230;-79
2023/03/12 12:03:30;;;;;;;4.17;1.60;;;13.10;1.00;;;;;;9893174;30;20245;-80
2023/03/12 12:08:59;;;;;;;7.43;2.30;;;13.30;1.00;;;;;;9896444;30;20217;-79
2023/03/12 12:14:38;;;;;;;2.70;1.30;;;12.60;1.00;;;;;;9911666;29;20218;-80
2023/03/12 12:20:12;;;;;;;4.70;1.83;;;11.90;1.00;;;;;;9917332;30;20222;-80
2023/03/12 12:25:40;;;;;;;5.07;1.87;;;11.60;1.00;;;;;;9892600;30;20315;-79
2023/03/12 12:31:14;;;;;;;9.07;2.63;;;11.80;1.00;;;;;;9929676;30;20280;-80
2023/03/12 12:36:36;;;;;;;1.83;0.87;;;11.60;1.00;;;;;;9923984;30;20442;-80
2023/03/12 12:42:02;;;;;;;2.63;1.07;;;11.80;1.00;;;;;;9930389;30;20309;-79
2023/03/12 12:47:46;;;;;;;3.80;1.10;;;11.70;1.00;;;;;;9928865;30;20500;-80
2023/03/12 12:53:21;;;;;;;5.87;1.30;;;11.90;1.00;;;;;;9923942;30;20211;-80
2023/03/12 12:59:02;;;;;;;6.73;1.77;;;11.50;1.00;;;;;;9907001;30;20210;-79
2023/03/12 13:04:36;;;;;;;6.37;1.97;;;11.50;1.00;;;;;;9892402;30;20239;-80
2023/03/12 13:09:58;;;;;;;4.07;1.10;;;10.90;1.00;;;;;;9890954;30;20272;-79
2023/03/12 13:15:28;;;;;;;4.80;1.97;;;10.00;1.80;;;;;;9891011;30;20518;-79
2023/03/12 13:20:52;;;;;;;4.03;1.20;;;10.20;2.50;;;;;;9894327;30;20235;-79
2023/03/12 13:26:36;;;;;;;6.20;1.43;;;10.40;2.00;;;;;;9854615;30;20212;-79
2023/03/12 13:31:57;;;;;;;3.10;1.17;;;10.80;1.30;;;;;;9855052;30;20251;-79
2023/03/12 13:37:47;;;;;;;6.67;1.97;;;10.80;1.10;;;;;;9882981;30;20222;-80
2023/03/12 13:43:13;;;;;;;1.87;1.10;;;10.70;1.80;;;;;;9878061;30;20236;-79
2023/03/12 13:48:35;;;;;;;2.73;1.27;;;10.30;2.00;;;;;;9891628;30;20207;-78
2023/03/12 13:54:01;;;;;;;1.63;0.90;;;9.90;2.30;;;;;;9913691;30;20249;-79
2023/03/12 13:59:25;;;;;;;2.33;0.77;;;8.90;3.60;;;;;;9881410;30;20215;-79
2023/03/12 14:04:46;;;;;;;4.57;1.40;;;8.70;4.40;;;;;;9853578;30;20231;-77
2023/03/12 14:10:30;;;;;;;3.73;1.00;;;8.50;4.20;;;;;;9922052;30;20222;-79
2023/03/12 14:16:08;;;;;;;2.10;0.97;;;7.90;4.40;;;;;;9914594;30;20210;-77
2023/03/12 14:21:34;;;;;;;3.57;1.33;;;7.20;5.60;;;;;;9905654;30;20528;-77
2023/03/12 14:26:57;;;;;;;4.67;1.60;;;7.10;6.90;;;;;;9904749;30;20202;-79
2023/03/12 14:32:21;;;;;;;3.83;1.50;;;6.80;6.90;;;;;;9902495;30;20387;-79
2023/03/12 14:38:07;;;;;;;4.30;1.40;;;6.50;7.60;;;;;;9924029;30;20213;-79
2023/03/12 14:43:33;;;;;;;5.37;1.57;;;6.50;8.60;;;;;;9933477;30;20244;-79
2023/03/12 14:48:54;;;;;;;5.63;1.90;;;6.20;8.40;;;;;;9933200;30;20213;-79
2023/03/12 14:54:20;;;;;;;5.20;1.67;;;6.10;8.80;;;;;;9928077;29;20244;-77
2023/03/12 14:59:50;;;;;;;3.33;1.17;;;5.90;8.90;;;;;;9885327;30;20263;-80
2023/03/12 15:05:17;;;;;;;2.90;1.27;;;5.70;9.60;;;;;;9908732;30;20262;-79
2023/03/12 15:10:39;;;;;;;2.90;1.47;;;5.70;10.20;;;;;;9902827;30;20440;-77
2023/03/12 15:16:03;;;;;;;3.70;1.40;;;5.90;10.40;;;;;;9896558;30;20260;-79
2023/03/12 15:21:25;;;;;;;3.07;1.20;;;5.90;10.60;;;;;;9910902;30;20267;-79
2023/03/12 15:26:46;;;;;;;3.47;1.43;;;5.80;10.80;;;;;;9895982;30;20198;-77
2023/03/12 15:32:13;;;;;;;5.27;1.63;;;5.80;11.20;;;;;;9909591;30;20233;-79
2023/03/12 15:37:39;;;;;;;6.17;1.23;;;5.80;11.90;;;;;;9892974;30;20297;-77
2023/03/12 15:43:02;;;;;;;3.33;1.23;;;5.50;11.40;;;;;;9881993;30;20302;-79
2023/03/12 15:48:30;;;;;;;2.70;1.50;;;5.40;11.90;;;;;;9893703;30;20405;-79
2023/03/12 15:54:05;;;;;;;3.57;1.47;;;5.40;12.70;;;;;;9871787;30;20257;-79
2023/03/12 15:59:27;;;;;;;4.83;1.53;;;5.40;13.00;;;;;;9871792;30;20210;-80
2023/03/12 16:04:48;;;;;;;4.73;1.50;;;5.20;13.20;;;;;;9872840;30;20260;-79
2023/03/12 16:10:14;;;;;;;8.57;2.30;;;5.10;13.60;;;;;;9894214;30;20201;-78
2023/03/12 16:15:37;;;;;;;12.37;5.00;;;5.00;13.90;;;;;;9894177;30;20212;-79
2023/03/12 16:20:58;;;;;;;6.33;3.10;;;4.90;14.10;;;;;;9915234;30;20288;-79
2023/03/12 16:26:21;;;;;;;4.33;2.10;;;4.80;14.90;;;;;;9856918;30;20205;-80
2023/03/12 16:31:54;;;;;;;11.97;5.60;;;4.60;15.50;;;;;;9844547;30;20241;-79
2023/03/12 16:37:15;;;;;;;14.43;7.30;;;4.50;15.40;;;;;;9923308;30;20220;-79
2023/03/12 16:42:42;;;;;;;18.33;8.40;;;4.40;16.00;;;;;;9929210;30;20255;-79
2023/03/12 16:48:05;;;;;;;23.63;11.10;;;4.40;16.20;;;;;;9922861;30;20354;-79
2023/03/12 16:53:26;;;;;;;15.23;8.40;;;4.30;16.10;;;;;;9923237;30;20216;-79
2023/03/12 16:58:51;;;;;;;16.30;8.23;;;4.30;16.00;;;;;;9904969;30;20213;-79
2023/03/12 17:04:12;;;;;;;12.27;6.33;;;4.30;16.90;;;;;;9905157;30;20244;-79
2023/03/12 17:09:33;;;;;;;40.47;14.50;;;4.20;16.40;;;;;;9928490;30;20219;-79
2023/03/12 17:14:55;;;;;;;69.37;28.30;;;4.20;16.40;;;;;;9928185;30;20282;-79
2023/03/12 17:20:20;;;;;;;54.63;22.00;;;4.10;16.70;;;;;;9921959;30;20213;-79
2023/03/12 17:25:42;;;;;;;57.60;21.63;;;4.10;17.80;;;;;;9894873;30;20372;-79
2023/03/12 17:31:04;;;;;;;58.60;25.10;;;4.10;17.70;;;;;;9891591;30;20201;-78
2023/03/12 17:36:24;;;;;;;67.07;26.60;;;4.00;18.50;;;;;;9923904;30;20223;-79
2023/03/12 17:41:46;;;;;;;57.23;23.77;;;4.00;17.50;;;;;;9927542;30;20232;-78
2023/03/12 17:47:07;;;;;;;44.37;18.93;;;3.80;1.00;;;;;;9917981;30;20265;-79
2023/03/12 17:52:30;;;;;;;36.13;17.20;;;3.80;1.00;;;;;;9916576;30;20235;-79
2023/03/12 17:57:51;;;;;;;54.93;24.73;;;3.80;1.00;;;;;;9911948;29;20233;-79
2023/03/12 18:03:12;;;;;;;57.17;25.67;;;3.80;1.00;;;;;;9889018;30;20458;-79
2023/03/12 18:08:33;;;;;;;60.27;26.43;;;3.70;1.00;;;;;;9866329;30;20198;-79
2023/03/12 18:13:55;;;;;;;66.60;27.70;;;3.60;1.00;;;;;;9861440;30;20344;-78
2023/03/12 18:19:16;;;;;;;63.93;27.43;;;3.60;1.00;;;;;;9933250;30;20269;-78
2023/03/12 18:24:37;;;;;;;76.53;31.47;;;3.40;1.00;;;;;;9902635;30;20235;-79
2023/03/12 18:29:58;;;;;;;105.63;41.40;;;3.40;1.00;;;;;;9897263;30;20394;-78
2023/03/12 18:35:21;;;;;;;113.07;44.23;;;3.30;41.40;;;;;;9883402;30;20277;-78
2023/03/12 18:40:42;;;;;;;154.03;59.37;;;3.10;71.30;;;;;;9908794;29;20215;-76
2023/03/12 18:46:04;;;;;;;159.30;66.07;;;3.00;1.00;;;;;;9898672;30;20588;-79
2023/03/12 18:51:26;;;;;;;145.33;61.80;;;2.90;60.00;;;;;;9896539;30;20204;-78
2023/03/12 18:56:47;;;;;;;116.63;53.33;;;2.80;62.20;;;;;;9895720;30;20568;-78
2023/03/12 19:02:09;;;;;;;63.13;27.07;;;2.70;72.00;;;;;;9898358;30;20250;-79
2023/03/12 19:07:30;;;;;;;53.43;23.40;;;2.70;67.10;;;;;;9926491;30;20222;-76
2023/03/12 19:12:51;;;;;;;87.50;41.47;;;2.70;71.10;;;;;;9916116;30;20213;-79
2023/03/12 19:18:13;;;;;;;61.50;24.40;;;2.60;70.20;;;;;;9882709;30;20205;-79
2023/03/12 19:23:35;;;;;;;68.77;26.30;;;2.50;72.50;;;;;;9895035;30;20617;-77
2023/03/12 19:28:56;;;;;;;64.10;25.90;;;2.50;83.10;;;;;;9925745;30;20601;-78
2023/03/12 19:34:18;;;;;;;58.13;23.40;;;2.40;84.60;;;;;;9932948;30;20250;-79
2023/03/12 19:39:39;;;;;;;53.57;21.77;;;2.50;82.60;;;;;;9927072;30;20208;-79
2023/03/12 19:45:00;;;;;;;55.03;23.03;;;2.50;87.50;;;;;;9932185;30;20458;-77
2023/03/12 19:50:22;;;;;;;41.03;18.23;;;2.30;86.60;;;;;;9931117;30;20229;-78
2023/03/12 19:55:47;;;;;;;48.50;19.73;;;2.30;79.50;;;;;;9925284;30;20322;-79
2023/03/12 20:01:08;;;;;;;39.70;16.47;;;2.30;86.70;;;;;;9893688;30;20407;-78
2023/03/12 20:06:30;;;;;;;50.97;17.93;;;2.30;86.90;;;;;;9894050;30;20207;-77
2023/03/12 20:11:51;;;;;;;44.03;20.70;;;2.20;82.10;;;;;;9913197;30;20231;-77
2023/03/12 20:17:12;;;;;;;54.97;22.87;;;2.20;83.20;;;;;;9931312;30;20248;-78
2023/03/12 20:22:36;;;;;;;57.73;23.07;;;2.10;85.40;;;;;;9918921;30;20778;-79
2023/03/12 20:27:57;;;;;;;85.13;31.77;;;2.10;90.90;;;;;;9923513;30;20211;-78
2023/03/12 20:33:18;;;;;;;136.07;50.30;;;2.10;93.20;;;;;;9930813;29;20264;-77
2023/03/12 20:38:40;;;;;;;139.47;51.27;;;2.10;90.90;;;;;;9925184;30;20254;-78
2023/03/12 20:44:01;;;;;;;120.93;45.40;;;2.10;90.60;;;;;;9865860;30;20274;-79
2023/03/12 20:49:22;;;;;;;123.43;47.13;;;2.10;89.40;;;;;;9855442;30;20316;-79
2023/03/12 20:54:43;;;;;;;124.50;52.13;;;2.10;90.60;;;;;;9862806;30;20349;-77
2023/03/12 21:00:05;;;;;;;99.23;39.50;;;2.10;91.00;;;;;;9895743;30;20308;-77
2023/03/12 21:05:27;;;;;;;83.53;33.53;;;2.10;89.80;;;;;;9892687;30;20235;-79
2023/03/12 21:10:48;;;;;;;67.70;28.43;;;2.10;91.80;;;;;;9890898;30;20254;-79
2023/03/12 21:16:10;;;;;;;56.30;24.33;;;2.10;92.90;;;;;;9891792;30;20276;-77
2023/03/12 21:21:35;;;;;;;62.07;25.57;;;2.00;91.80;;;;;;9891107;30;20249;-78
2023/03/12 21:26:56;;;;;;;60.00;26.00;;;2.00;93.20;;;;;;9912086;30;20217;-78
2023/03/12 21:32:17;;;;;;;68.27;26.53;;;2.00;94.60;;;;;;9928936;30;20252;-78
2023/03/12 21:37:38;;;;;;;46.47;20.97;;;2.00;94.70;;;;;;9927685;30;20207;-78
2023/03/12 21:42:59;;;;;;;34.37;17.50;;;2.00;94.00;;;;;;9890661;30;20310;-78
2023/03/12 21:48:20;;;;;;;36.23;17.50;;;2.00;94.70;;;;;;9891176;30;20512;-77
2023/03/12 21:53:41;;;;;;;50.10;22.83;;;2.00;94.50;;;;;;9889522;30;20253;-78
2023/03/12 21:59:02;;;;;;;52.43;24.27;;;1.90;95.30;;;;;;9893885;30;20266;-78
2023/03/12 22:04:24;;;;;;;39.17;18.73;;;1.90;96.00;;;;;;9874365;30;20238;-78
2023/03/12 22:09:45;;;;;;;35.07;17.17;;;1.90;96.00;;;;;;9865978;30;20262;-78
2023/03/12 22:15:07;;;;;;;35.10;16.40;;;1.90;95.40;;;;;;9869481;30;20207;-78
2023/03/12 22:20:29;;;;;;;33.63;12.97;;;1.90;95.50;;;;;;9891119;30;20310;-79
2023/03/12 22:25:50;;;;;;;23.90;10.13;;;2.00;95.90;;;;;;9889721;30;20230;-78
2023/03/12 22:31:11;;;;;;;22.37;11.83;;;1.90;95.70;;;;;;9851407;30;20395;-78
2023/03/12 22:36:32;;;;;;;29.00;13.20;;;1.90;95.60;;;;;;9852721;30;20212;-78
2023/03/12 22:41:54;;;;;;;27.23;12.90;;;1.90;96.20;;;;;;9862530;30;20420;-79
2023/03/12 22:47:15;;;;;;;27.50;11.83;;;1.90;96.50;;;;;;9926714;30;20223;-78
2023/03/12 22:52:36;;;;;;;22.30;10.73;;;1.80;96.50;;;;;;9927375;30;20199;-79
2023/03/12 22:57:57;;;;;;;29.73;13.63;;;1.80;97.20;;;;;;9904808;30;20235;-79
2023/03/12 23:03:18;;;;;;;30.67;15.00;;;1.90;96.90;;;;;;9880453;30;20529;-78
2023/03/12 23:08:40;;;;;;;31.13;13.00;;;1.90;96.90;;;;;;9866135;30;20203;-77
2023/03/12 23:14:01;;;;;;;20.83;10.10;;;2.00;97.20;;;;;;9868116;30;20218;-78
2023/03/12 23:19:22;;;;;;;21.60;9.00;;;2.10;97.60;;;;;;9895713;30;20256;-79
2023/03/12 23:24:43;;;;;;;21.00;8.30;;;2.10;97.00;;;;;;9895946;30;20250;-79
2023/03/12 23:30:04;;;;;;;24.00;10.00;;;2.10;97.20;;;;;;9862794;30;20233;-79
2023/03/12 23:35:25;;;;;;;20.90;10.47;;;2.20;97.60;;;;;;9886756;30;20210;-78
2023/03/12 23:40:47;;;;;;;25.77;11.37;;;2.10;97.60;;;;;;9896343;30;20205;-79
2023/03/12 23:46:09;;;;;;;22.77;9.77;;;2.20;98.50;;;;;;9931575;30;20265;-78
2023/03/12 23:51:32;;;;;;;19.20;7.90;;;2.20;98.00;;;;;;9931531;30;20524;-78
2023/03/12 23:56:55;;;;;;;15.00;6.70;;;2.20;97.90;;;;;;9925204;30;20317;-79
